Bruk link Alternativ webside om du vil se statistikk,rapport,graf,analyse og mye mer.

Vårt webkamera more information My webcam


webkamera på Randaberg more information webcam on Randaberg


Nedbørsradar  rain snow radar


Besøk vår andre værside:

Alternativ webside

Alternativ mobil

Regnskvett RandabergWebsite of another weatherstation



Ikke nødvendig med spesiell oppmerksomhet.    Det er ingen advarsler

Nære METAR rapporter

   
ENHD - Haugesund
oppdatert: 05-12-2021 15:20
Klart  
Klart  
   Vind: ØSØ 3.6 m/s
Vind: ØSØ 3.6 m/s
Temperatur: 0°C
Wind Chill: -4°C
Duggpunkt: -7°C
Fuktighet: 60%
Barometer: 1017 hPa
Sikt: More than 10 km
Skydetaljer: Klart
ENHD 051420Z 12007KT CAVOK 00/M07 Q1017
ENZV - Randaberg
oppdatert: 05-12-2021 15:20
Klart  
Klart  
   Vind: SSV 1.5 m/s
Vind: SSV 1.5 m/s
Temperatur: -3°C
Wind Chill: -5°C
Duggpunkt: -9°C
Fuktighet: 64%
Barometer: 1017 hPa
Sikt: More than 10 km
Skydetaljer: Klart
ENZV 051420Z 20003KT CAVOK M03/M09 Q1017 NOSIG
ENBR - Bergen
oppdatert: 05-12-2021 15:20
For det meste skyet  
For det meste skyet  
   Vind: Sør 2.1 m/s
Vind: Sør 2.1 m/s
Temperatur: 0°C
Wind Chill: -3°C
Duggpunkt: -7°C
Fuktighet: 60%
Barometer: 1017 hPa
Skyer: For det meste skyet
Sikt: More than 10 km
Skydetaljer: Delvis Skyet 1402.1 m,
For det meste skyet 1889.8 m
ENBR 051420Z 19004KT 9999 SCT046 BKN062 M00/M07 Q1017 NOSIG RMK WIND 1200FT 13010KT
ENCN - Kristiansand
oppdatert: 05-12-2021 15:20
For det meste skyet  
For det meste skyet  
   Vind: NNØ 8.2 m/s
Vind: NNØ 8.2 m/s
Temperatur: -4°C
Wind Chill: -12°C
Duggpunkt: -8°C
Fuktighet: 74%
Barometer: 1020 hPa
Skyer: For det meste skyet
Sikt: More than 10 km
Skydetaljer: For det meste skyet 762 m
ENCN 051420Z 03016KT 9999 BKN025 M04/M08 Q1020
ENGM - Oslo
oppdatert: 05-12-2021 15:20
Delvis Skyet  
Delvis Skyet  
   Vind: Nord 3.1 m/s
Vind: Nord 3.1 m/s
Temperatur: -9°C
Wind Chill: -14°C
Duggpunkt: -12°C
Fuktighet: 79%
Barometer: 1022 hPa
Skyer: Delvis Skyet
Sikt: More than 10 km
Skydetaljer: få skyer 762 m,
Delvis Skyet 944.9 m
ENGM 051420Z 01006KT 9999 FEW025 SCT031 M09/M12 Q1022 NOSIG
ENVA - Trondheim
oppdatert: 05-12-2021 15:20
Klart  
Klart  
   Vind: Øst 4.6 m/s
Vind: Øst 4.6 m/s
Temperatur: -6°C
Wind Chill: -12°C
Duggpunkt: -13°C
Fuktighet: 58%
Barometer: 1020 hPa
Sikt: More than 10 km
Skydetaljer: Klart
ENVA 051420Z 09009KT 060V130 CAVOK M06/M13 Q1020 NOSIG RMK WIND 670FT 14017KT

Script utviklet av  Saratoga-weather.org Tilrettelagt for malen av  Weerstation Leuven

Du finner vår vær info også på:

European Weather Network

WeatherCloud

Weather Underground

Citizen Weather Observer Program (CWOP)

Utstyr vi bruker:

Værstsjon
Oregon scientific WMR 300

Værprogram
Meteobridge

Oregon scientific WMR 300

Meteobridge